Time,TemperatureF,DewpointF,PressureIn,WindDirection,WindDirectionDegrees,WindSpeedMPH,WindSpeedGustMPH,Humidity,HourlyPrecipIn,Conditions,Clouds,dailyrainin,SoftwareType,DateUTC
2013-08-17 00:01:00,61.2,56.0,30.18,West,268,0.0,0.0,83,0.00,,,0.00,weatherlink.com 1.10,2013-08-17 04:01:00,
2013-08-17 00:16:00,60.6,55.0,30.19,West,268,0.0,0.0,83,0.00,,,0.00,weatherlink.com 1.10,2013-08-17 04:16:00,
2013-08-17 00:31:00,60.5,55.0,30.19,West,268,0.0,0.0,83,0.00,,,0.00,weatherlink.com 1.10,2013-08-17 04:31:00,
2013-08-17 00:46:00,60.4,56.0,30.19,West,268,0.0,0.0,84,0.00,,,0.00,weatherlink.com 1.10,2013-08-17 04:46:00,
2013-08-17 01:01:00,60.4,56.0,30.19,West,268,0.0,0.0,85,0.00,,,0.00,weatherlink.com 1.10,2013-08-17 05:01:00,
2013-08-17 01:16:00,60.5,56.0,30.19,West,268,0.0,0.0,84,0.00,,,0.00,weatherlink.com 1.10,2013-08-17 05:16:00,
2013-08-17 01:31:00,60.6,55.0,30.20,West,268,0.0,0.0,83,0.00,,,0.00,weatherlink.com 1.10,2013-08-17 05:31:00,
2013-08-17 01:46:00,60.8,56.0,30.20,West,268,0.0,0.0,83,0.00,,,0.00,weatherlink.com 1.10,2013-08-17 05:46:00,
2013-08-17 02:01:00,60.6,55.0,30.20,West,268,0.0,0.0,83,0.00,,,0.00,weatherlink.com 1.10,2013-08-17 06:01:00,
2013-08-17 02:16:00,60.2,56.0,30.20,West,268,0.0,0.0,85,0.00,,,0.00,weatherlink.com 1.10,2013-08-17 06:16:00,
2013-08-17 02:31:00,59.9,55.0,30.20,West,268,0.0,0.0,85,0.00,,,0.00,weatherlink.com 1.10,2013-08-17 06:31:00,
2013-08-17 02:46:00,59.4,56.0,30.19,West,268,0.0,0.0,87,0.00,,,0.00,weatherlink.com 1.10,2013-08-17 06:46:00,
2013-08-17 03:01:00,59.2,55.0,30.20,West,268,0.0,0.0,86,0.00,,,0.00,weatherlink.com 1.10,2013-08-17 07:01:00,
2013-08-17 03:16:00,59.1,55.0,30.20,West,268,0.0,0.0,87,0.00,,,0.00,weatherlink.com 1.10,2013-08-17 07:16:00,
2013-08-17 03:31:00,58.8,55.0,30.20,West,268,0.0,0.0,87,0.00,,,0.00,weatherlink.com 1.10,2013-08-17 07:31:00,
2013-08-17 03:46:00,59.0,55.0,30.20,West,268,0.0,0.0,86,0.00,,,0.00,weatherlink.com 1.10,2013-08-17 07:46:00,
2013-08-17 04:01:00,59.4,55.0,30.20,West,268,0.0,0.0,85,0.00,,,0.00,weatherlink.com 1.10,2013-08-17 08:01:00,
2013-08-17 04:16:00,58.7,55.0,30.20,West,268,0.0,0.0,88,0.00,,,0.00,weatherlink.com 1.10,2013-08-17 08:16:00,
2013-08-17 04:31:00,57.9,54.0,30.20,West,268,0.0,0.0,88,0.00,,,0.00,weatherlink.com 1.10,2013-08-17 08:31:00,
2013-08-17 04:46:00,58.0,55.0,30.20,West,268,0.0,0.0,88,0.00,,,0.00,weatherlink.com 1.10,2013-08-17 08:46:00,
2013-08-17 05:01:00,58.0,55.0,30.20,West,268,0.0,0.0,89,0.00,,,0.00,weatherlink.com 1.10,2013-08-17 09:01:00,
2013-08-17 05:16:00,57.7,55.0,30.20,West,268,0.0,0.0,90,0.00,,,0.00,weatherlink.com 1.10,2013-08-17 09:16:00,
2013-08-17 05:31:00,57.5,55.0,30.20,West,268,0.0,0.0,91,0.00,,,0.00,weatherlink.com 1.10,2013-08-17 09:31:00,
2013-08-17 05:46:00,57.4,55.0,30.20,West,268,0.0,0.0,91,0.00,,,0.00,weatherlink.com 1.10,2013-08-17 09:46:00,
2013-08-17 06:01:00,57.3,55.0,30.21,West,268,0.0,0.0,91,0.00,,,0.00,weatherlink.com 1.10,2013-08-17 10:01:00,
2013-08-17 06:16:00,57.1,55.0,30.21,West,268,0.0,0.0,92,0.00,,,0.00,weatherlink.com 1.10,2013-08-17 10:16:00,
2013-08-17 06:31:00,57.0,55.0,30.22,West,268,0.0,0.0,92,0.00,,,0.00,weatherlink.com 1.10,2013-08-17 10:31:00,
2013-08-17 06:46:00,57.3,55.0,30.23,West,268,0.0,0.0,92,0.00,,,0.00,weatherlink.com 1.10,2013-08-17 10:46:00,
2013-08-17 07:01:00,57.6,55.0,30.23,West,268,0.0,0.0,92,0.00,,,0.00,weatherlink.com 1.10,2013-08-17 11:01:00,
2013-08-17 07:16:00,58.2,56.0,30.23,West,268,0.0,0.0,92,0.00,,,0.00,weatherlink.com 1.10,2013-08-17 11:16:00,
2013-08-17 07:31:00,58.9,57.0,30.23,West,268,0.0,0.0,92,0.00,,,0.00,weatherlink.com 1.10,2013-08-17 11:31:00,
2013-08-17 07:46:00,60.1,58.0,30.24,West,268,0.0,0.0,91,0.00,,,0.00,weatherlink.com 1.10,2013-08-17 11:46:00,
2013-08-17 08:01:00,61.2,58.0,30.24,West,268,0.0,0.0,89,0.00,,,0.00,weatherlink.com 1.10,2013-08-17 12:01:00,
2013-08-17 08:16:00,62.6,59.0,30.24,West,268,0.0,0.0,87,0.00,,,0.00,weatherlink.com 1.10,2013-08-17 12:16:00,
2013-08-17 08:31:00,64.2,59.0,30.25,West,268,0.0,0.0,84,0.00,,,0.00,weatherlink.com 1.10,2013-08-17 12:31:00,
2013-08-17 08:46:00,65.4,59.0,30.25,WNW,291,0.0,0.0,81,0.00,,,0.00,weatherlink.com 1.10,2013-08-17 12:46:00,
2013-08-17 09:01:00,66.5,60.0,30.25,WNW,297,0.0,1.0,80,0.00,,,0.00,weatherlink.com 1.10,2013-08-17 13:01:00,
2013-08-17 09:17:00,67.4,60.0,30.25,NW,314,0.0,3.0,77,0.00,,,0.00,weatherlink.com 1.10,2013-08-17 13:17:00,
2013-08-17 09:32:00,68.1,60.0,30.25,NW,314,0.0,1.0,75,0.00,,,0.00,weatherlink.com 1.10,2013-08-17 13:32:00,
2013-08-17 09:47:00,69.1,61.0,30.25,NW,317,0.0,1.0,74,0.00,,,0.00,weatherlink.com 1.10,2013-08-17 13:47:00,
2013-08-17 10:02:00,69.7,61.0,30.25,NW,321,0.0,1.0,73,0.00,,,0.00,weatherlink.com 1.10,2013-08-17 14:02:00,
2013-08-17 10:17:00,70.4,61.0,30.26,NW,321,0.0,1.0,72,0.00,,,0.00,weatherlink.com 1.10,2013-08-17 14:17:00,
2013-08-17 10:32:00,70.8,61.0,30.26,NW,321,0.0,1.0,71,0.00,,,0.00,weatherlink.com 1.10,2013-08-17 14:32:00,
2013-08-17 10:47:00,71.4,61.0,30.26,NW,321,0.0,1.0,70,0.00,,,0.00,weatherlink.com 1.10,2013-08-17 14:47:00,
2013-08-17 11:02:00,71.9,62.0,30.25,NW,321,0.0,1.0,70,0.00,,,0.00,weatherlink.com 1.10,2013-08-17 15:02:00,
2013-08-17 11:17:00,72.4,61.0,30.25,NW,321,0.0,1.0,68,0.00,,,0.00,weatherlink.com 1.10,2013-08-17 15:17:00,
2013-08-17 11:32:00,73.0,62.0,30.25,NNW,329,0.0,1.0,68,0.00,,,0.00,weatherlink.com 1.10,2013-08-17 15:32:00,
2013-08-17 11:47:00,73.7,61.0,30.24,NNW,335,0.0,4.0,64,0.00,,,0.00,weatherlink.com 1.10,2013-08-17 15:47:00,
2013-08-17 12:02:00,74.6,61.0,30.24,NNW,339,0.0,3.0,62,0.00,,,0.00,weatherlink.com 1.10,2013-08-17 16:02:00,
2013-08-17 12:17:00,75.7,61.0,30.24,ESE,111,1.0,3.0,61,0.00,,,0.00,weatherlink.com 1.10,2013-08-17 16:17:00,
2013-08-17 12:32:00,76.7,60.0,30.24,ENE,76,0.0,1.0,56,0.00,,,0.00,weatherlink.com 1.10,2013-08-17 16:32:00,
2013-08-17 12:47:00,77.5,60.0,30.24,ESE,108,0.0,3.0,56,0.00,,,0.00,weatherlink.com 1.10,2013-08-17 16:47:00,
2013-08-17 13:10:00,78.2,61.0,30.23,NE,40,0.0,4.0,55,0.00,,,0.00,weatherlink.com 1.10,2013-08-17 17:10:00,
2013-08-17 13:17:00,78.7,60.0,30.23,NE,40,0.0,1.0,52,0.00,,,0.00,weatherlink.com 1.10,2013-08-17 17:17:00,
2013-08-17 13:32:00,79.7,60.0,30.24,SW,233,0.0,3.0,51,0.00,,,0.00,weatherlink.com 1.10,2013-08-17 17:32:00,
2013-08-17 13:47:00,79.8,59.0,30.23,SW,236,0.0,1.0,50,0.00,,,0.00,weatherlink.com 1.10,2013-08-17 17:47:00,
2013-08-17 14:02:00,81.1,60.0,30.22,SW,234,0.0,1.0,49,0.00,,,0.00,weatherlink.com 1.10,2013-08-17 18:02:00,
2013-08-17 14:17:00,81.8,57.0,30.23,SW,227,0.0,2.0,43,0.00,,,0.00,weatherlink.com 1.10,2013-08-17 18:17:00,
2013-08-17 14:32:00,81.3,60.0,30.22,SW,228,0.0,1.0,48,0.00,,,0.00,weatherlink.com 1.10,2013-08-17 18:32:00,
2013-08-17 14:47:00,81.1,60.0,30.22,SW,227,0.0,1.0,49,0.00,,,0.00,weatherlink.com 1.10,2013-08-17 18:47:00,
2013-08-17 15:02:00,80.2,61.0,30.21,SW,227,0.0,0.0,52,0.00,,,0.00,weatherlink.com 1.10,2013-08-17 19:02:00,
2013-08-17 15:17:00,80.0,60.0,30.21,SW,215,0.0,2.0,50,0.00,,,0.00,weatherlink.com 1.10,2013-08-17 19:17:00,
2013-08-17 15:32:00,79.3,59.0,30.21,SW,215,0.0,0.0,50,0.00,,,0.00,weatherlink.com 1.10,2013-08-17 19:32:00,
2013-08-17 15:47:00,78.1,61.0,30.21,SW,215,0.0,0.0,55,0.00,,,0.00,weatherlink.com 1.10,2013-08-17 19:47:00,
2013-08-17 16:02:00,78.5,61.0,30.21,SW,215,0.0,0.0,56,0.00,,,0.00,weatherlink.com 1.10,2013-08-17 20:02:00,
2013-08-17 16:17:00,78.6,60.0,30.21,SW,215,0.0,0.0,53,0.00,,,0.00,weatherlink.com 1.10,2013-08-17 20:17:00,
2013-08-17 16:32:00,80.0,61.0,30.21,SW,215,0.0,0.0,53,0.00,,,0.00,weatherlink.com 1.10,2013-08-17 20:32:00,
2013-08-17 16:48:00,80.7,62.0,30.21,SW,215,0.0,0.0,53,0.00,,,0.00,weatherlink.com 1.10,2013-08-17 20:48:00,
2013-08-17 17:03:00,81.1,60.0,30.21,SW,215,0.0,0.0,49,0.00,,,0.00,weatherlink.com 1.10,2013-08-17 21:03:00,
2013-08-17 17:18:00,80.6,62.0,30.21,SW,215,0.0,0.0,53,0.00,,,0.00,weatherlink.com 1.10,2013-08-17 21:18:00,
2013-08-17 17:33:00,79.9,62.0,30.21,SW,215,0.0,0.0,54,0.00,,,0.00,weatherlink.com 1.10,2013-08-17 21:33:00,
2013-08-17 17:48:00,78.7,61.0,30.21,SW,215,0.0,0.0,55,0.00,,,0.00,weatherlink.com 1.10,2013-08-17 21:48:00,
2013-08-17 18:03:00,78.3,62.0,30.21,SW,215,0.0,0.0,57,0.00,,,0.00,weatherlink.com 1.10,2013-08-17 22:03:00,
2013-08-17 18:18:00,77.8,62.0,30.20,SW,215,0.0,0.0,59,0.00,,,0.00,weatherlink.com 1.10,2013-08-17 22:18:00,
2013-08-17 18:33:00,77.1,63.0,30.21,SW,215,0.0,0.0,61,0.00,,,0.00,weatherlink.com 1.10,2013-08-17 22:33:00,
2013-08-17 18:48:00,76.5,62.0,30.20,SW,215,0.0,0.0,61,0.00,,,0.00,weatherlink.com 1.10,2013-08-17 22:48:00,
2013-08-17 19:03:00,75.6,62.0,30.21,SW,215,0.0,0.0,62,0.00,,,0.00,weatherlink.com 1.10,2013-08-17 23:03:00,
2013-08-17 19:18:00,74.6,61.0,30.21,SW,215,0.0,0.0,62,0.00,,,0.00,weatherlink.com 1.10,2013-08-17 23:18:00,
2013-08-17 19:33:00,74.0,61.0,30.22,SW,215,0.0,0.0,65,0.00,,,0.00,weatherlink.com 1.10,2013-08-17 23:33:00,
2013-08-17 19:48:00,73.2,61.0,30.22,SW,215,0.0,0.0,65,0.00,,,0.00,weatherlink.com 1.10,2013-08-17 23:48:00,
2013-08-17 20:03:00,72.4,62.0,30.22,SW,215,0.0,0.0,69,0.00,,,0.00,weatherlink.com 1.10,2013-08-18 00:03:00,
2013-08-17 20:18:00,71.4,61.0,30.22,SW,215,0.0,0.0,70,0.00,,,0.00,weatherlink.com 1.10,2013-08-18 00:18:00,
2013-08-17 20:33:00,70.3,61.0,30.22,SW,215,0.0,0.0,72,0.00,,,0.00,weatherlink.com 1.10,2013-08-18 00:33:00,
2013-08-17 20:48:00,69.6,60.0,30.23,SW,215,0.0,0.0,72,0.00,,,0.00,weatherlink.com 1.10,2013-08-18 00:48:00,
2013-08-17 21:03:00,68.8,61.0,30.23,SW,215,0.0,0.0,75,0.00,,,0.00,weatherlink.com 1.10,2013-08-18 01:03:00,
2013-08-17 21:18:00,68.1,60.0,30.24,SW,215,0.0,0.0,76,0.00,,,0.00,weatherlink.com 1.10,2013-08-18 01:18:00,
2013-08-17 21:33:00,67.6,60.0,30.24,SW,215,0.0,0.0,77,0.00,,,0.00,weatherlink.com 1.10,2013-08-18 01:33:00,
2013-08-17 21:48:00,67.3,59.0,30.24,SW,215,0.0,0.0,75,0.00,,,0.00,weatherlink.com 1.10,2013-08-18 01:48:00,
2013-08-17 22:03:00,67.0,57.0,30.24,SW,215,0.0,0.0,70,0.00,,,0.00,weatherlink.com 1.10,2013-08-18 02:03:00,
2013-08-17 22:18:00,67.1,57.0,30.24,SW,215,0.0,1.0,69,0.00,,,0.00,weatherlink.com 1.10,2013-08-18 02:18:00,
2013-08-17 22:33:00,66.9,57.0,30.24,SW,215,0.0,0.0,71,0.00,,,0.00,weatherlink.com 1.10,2013-08-18 02:33:00,
2013-08-17 22:48:00,66.4,57.0,30.25,SW,215,0.0,0.0,72,0.00,,,0.00,weatherlink.com 1.10,2013-08-18 02:48:00,
2013-08-17 23:03:00,65.9,57.0,30.25,SW,215,0.0,0.0,72,0.00,,,0.00,weatherlink.com 1.10,2013-08-18 03:03:00,
2013-08-17 23:18:00,65.4,57.0,30.25,SW,215,0.0,1.0,74,0.00,,,0.00,weatherlink.com 1.10,2013-08-18 03:18:00,
2013-08-17 23:33:00,64.9,58.0,30.24,SW,215,0.0,0.0,77,0.00,,,0.00,weatherlink.com 1.10,2013-08-18 03:33:00,
2013-08-17 23:48:00,64.4,58.0,30.24,SW,215,0.0,0.0,79,0.00,,,0.00,weatherlink.com 1.10,2013-08-18 03:48:00,